sensor_id;sensor_type;location;lat;lon;timestamp;temperature;humidity
2873;DHT22;1444;49.166;7.312;2023-03-14T00:00:48;12.40;99.90
2873;DHT22;1444;49.166;7.312;2023-03-14T00:03:15;11.60;99.90
2873;DHT22;1444;49.166;7.312;2023-03-14T00:05:42;11.60;99.90
2873;DHT22;1444;49.166;7.312;2023-03-14T00:10:36;11.60;99.90
2873;DHT22;1444;49.166;7.312;2023-03-14T00:13:04;11.50;99.90
2873;DHT22;1444;49.166;7.312;2023-03-14T00:15:32;11.60;99.90
2873;DHT22;1444;49.166;7.312;2023-03-14T00:17:58;11.60;99.90
2873;DHT22;1444;49.166;7.312;2023-03-14T00:20:25;11.60;99.90
2873;DHT22;1444;49.166;7.312;2023-03-14T00:22:58;11.60;99.90
2873;DHT22;1444;49.166;7.312;2023-03-14T00:25:25;11.60;99.90
2873;DHT22;1444;49.166;7.312;2023-03-14T00:27:52;11.60;99.90
2873;DHT22;1444;49.166;7.312;2023-03-14T00:30:20;11.70;99.90
2873;DHT22;1444;49.166;7.312;2023-03-14T00:32:47;11.60;99.90
2873;DHT22;1444;49.166;7.312;2023-03-14T00:37:40;11.70;99.90
2873;DHT22;1444;49.166;7.312;2023-03-14T00:40:08;11.60;99.90
2873;DHT22;1444;49.166;7.312;2023-03-14T00:42:35;11.60;99.90
2873;DHT22;1444;49.166;7.312;2023-03-14T00:47:31;11.60;99.90
2873;DHT22;1444;49.166;7.312;2023-03-14T00:57:19;11.70;99.90
2873;DHT22;1444;49.166;7.312;2023-03-14T01:02:12;11.60;99.90
2873;DHT22;1444;49.166;7.312;2023-03-14T01:04:40;11.70;99.90
2873;DHT22;1444;49.166;7.312;2023-03-14T01:12:07;11.60;99.90
2873;DHT22;1444;49.166;7.312;2023-03-14T01:17:01;11.40;99.90
2873;DHT22;1444;49.166;7.312;2023-03-14T01:19:28;11.50;99.90
2873;DHT22;1444;49.166;7.312;2023-03-14T01:21:56;11.40;99.90
2873;DHT22;1444;49.166;7.312;2023-03-14T01:24:23;11.40;99.90
2873;DHT22;1444;49.166;7.312;2023-03-14T01:26:49;11.30;99.90
2873;DHT22;1444;49.166;7.312;2023-03-14T01:31:43;11.50;99.90
2873;DHT22;1444;49.166;7.312;2023-03-14T01:34:10;11.40;99.90
2873;DHT22;1444;49.166;7.312;2023-03-14T01:39:05;11.50;99.90
2873;DHT22;1444;49.166;7.312;2023-03-14T01:44:00;11.40;99.90
2873;DHT22;1444;49.166;7.312;2023-03-14T01:46:38;11.40;99.90
2873;DHT22;1444;49.166;7.312;2023-03-14T01:49:09;11.50;99.90
2873;DHT22;1444;49.166;7.312;2023-03-14T01:51:42;11.50;99.90
2873;DHT22;1444;49.166;7.312;2023-03-14T01:54:16;11.50;99.90
2873;DHT22;1444;49.166;7.312;2023-03-14T01:56:48;11.50;99.90
2873;DHT22;1444;49.166;7.312;2023-03-14T01:59:16;11.50;99.90
2873;DHT22;1444;49.166;7.312;2023-03-14T02:01:45;11.30;99.90
2873;DHT22;1444;49.166;7.312;2023-03-14T02:04:14;11.30;99.90
2873;DHT22;1444;49.166;7.312;2023-03-14T02:06:49;11.30;99.90
2873;DHT22;1444;49.166;7.312;2023-03-14T02:09:17;11.30;99.90
2873;DHT22;1444;49.166;7.312;2023-03-14T02:11:45;11.30;99.90
2873;DHT22;1444;49.166;7.312;2023-03-14T02:14:20;11.30;99.90
2873;DHT22;1444;49.166;7.312;2023-03-14T02:16:50;11.10;99.90
2873;DHT22;1444;49.166;7.312;2023-03-14T02:19:22;11.20;99.90
2873;DHT22;1444;49.166;7.312;2023-03-14T02:21:55;11.30;99.90
2873;DHT22;1444;49.166;7.312;2023-03-14T02:24:31;11.30;99.90
2873;DHT22;1444;49.166;7.312;2023-03-14T02:27:09;11.10;99.90
2873;DHT22;1444;49.166;7.312;2023-03-14T02:29:41;11.20;99.90
2873;DHT22;1444;49.166;7.312;2023-03-14T02:32:11;11.20;99.90
2873;DHT22;1444;49.166;7.312;2023-03-14T02:34:38;11.10;99.90
2873;DHT22;1444;49.166;7.312;2023-03-14T02:37:05;11.20;99.90
2873;DHT22;1444;49.166;7.312;2023-03-14T02:39:36;11.10;99.90
2873;DHT22;1444;49.166;7.312;2023-03-14T02:42:03;11.10;99.90
2873;DHT22;1444;49.166;7.312;2023-03-14T02:44:31;11.20;99.90
2873;DHT22;1444;49.166;7.312;2023-03-14T02:49:26;11.20;99.90
2873;DHT22;1444;49.166;7.312;2023-03-14T02:51:54;11.00;99.90
2873;DHT22;1444;49.166;7.312;2023-03-14T02:54:21;11.10;99.90
2873;DHT22;1444;49.166;7.312;2023-03-14T02:56:48;11.20;99.90
2873;DHT22;1444;49.166;7.312;2023-03-14T02:59:14;11.20;99.90
2873;DHT22;1444;49.166;7.312;2023-03-14T03:01:42;11.10;99.90
2873;DHT22;1444;49.166;7.312;2023-03-14T03:04:09;11.20;99.90
2873;DHT22;1444;49.166;7.312;2023-03-14T03:06:36;11.10;99.90
2873;DHT22;1444;49.166;7.312;2023-03-14T03:09:03;11.10;99.90
2873;DHT22;1444;49.166;7.312;2023-03-14T03:11:29;11.10;99.90
2873;DHT22;1444;49.166;7.312;2023-03-14T03:13:57;10.90;99.90
2873;DHT22;1444;49.166;7.312;2023-03-14T03:16:23;11.00;99.90
2873;DHT22;1444;49.166;7.312;2023-03-14T03:18:51;10.90;99.90
2873;DHT22;1444;49.166;7.312;2023-03-14T03:21:18;10.90;99.90
2873;DHT22;1444;49.166;7.312;2023-03-14T03:23:48;10.90;99.90
2873;DHT22;1444;49.166;7.312;2023-03-14T03:26:15;10.90;99.90
2873;DHT22;1444;49.166;7.312;2023-03-14T03:28:42;11.00;99.90
2873;DHT22;1444;49.166;7.312;2023-03-14T03:31:09;10.80;99.90
2873;DHT22;1444;49.166;7.312;2023-03-14T03:33:37;10.80;99.90
2873;DHT22;1444;49.166;7.312;2023-03-14T03:36:06;10.80;99.90
2873;DHT22;1444;49.166;7.312;2023-03-14T03:38:33;10.90;99.90
2873;DHT22;1444;49.166;7.312;2023-03-14T03:41:02;11.00;99.90
2873;DHT22;1444;49.166;7.312;2023-03-14T03:43:29;10.90;99.90
2873;DHT22;1444;49.166;7.312;2023-03-14T03:45:55;10.80;99.90
2873;DHT22;1444;49.166;7.312;2023-03-14T03:48:22;10.90;99.90
2873;DHT22;1444;49.166;7.312;2023-03-14T03:50:49;11.00;99.90
2873;DHT22;1444;49.166;7.312;2023-03-14T03:53:17;10.90;99.90
2873;DHT22;1444;49.166;7.312;2023-03-14T03:55:43;10.90;99.90
2873;DHT22;1444;49.166;7.312;2023-03-14T03:58:10;11.00;99.90
2873;DHT22;1444;49.166;7.312;2023-03-14T04:00:37;10.90;99.90
2873;DHT22;1444;49.166;7.312;2023-03-14T04:03:04;10.80;99.90
2873;DHT22;1444;49.166;7.312;2023-03-14T04:05:31;10.80;99.90
2873;DHT22;1444;49.166;7.312;2023-03-14T04:07:58;10.70;99.90
2873;DHT22;1444;49.166;7.312;2023-03-14T04:10:26;10.90;99.90
2873;DHT22;1444;49.166;7.312;2023-03-14T04:12:52;10.90;99.90
2873;DHT22;1444;49.166;7.312;2023-03-14T04:15:19;10.80;99.90
2873;DHT22;1444;49.166;7.312;2023-03-14T04:17:46;10.80;99.90
2873;DHT22;1444;49.166;7.312;2023-03-14T04:20:12;10.70;99.90
2873;DHT22;1444;49.166;7.312;2023-03-14T04:22:40;10.60;99.90
2873;DHT22;1444;49.166;7.312;2023-03-14T04:25:07;10.70;99.90
2873;DHT22;1444;49.166;7.312;2023-03-14T04:27:35;10.70;99.90
2873;DHT22;1444;49.166;7.312;2023-03-14T04:30:03;10.80;99.90
2873;DHT22;1444;49.166;7.312;2023-03-14T04:32:29;10.80;99.90
2873;DHT22;1444;49.166;7.312;2023-03-14T04:34:56;10.70;99.90
2873;DHT22;1444;49.166;7.312;2023-03-14T04:37:23;10.60;99.90
2873;DHT22;1444;49.166;7.312;2023-03-14T04:39:49;10.60;99.90
2873;DHT22;1444;49.166;7.312;2023-03-14T04:42:16;10.60;99.90
2873;DHT22;1444;49.166;7.312;2023-03-14T04:44:44;10.60;99.90
2873;DHT22;1444;49.166;7.312;2023-03-14T04:47:12;10.50;99.90
2873;DHT22;1444;49.166;7.312;2023-03-14T04:49:38;10.50;99.90
2873;DHT22;1444;49.166;7.312;2023-03-14T04:52:05;10.50;99.90
2873;DHT22;1444;49.166;7.312;2023-03-14T04:54:32;10.50;99.90
2873;DHT22;1444;49.166;7.312;2023-03-14T04:56:58;10.50;99.90
2873;DHT22;1444;49.166;7.312;2023-03-14T04:59:25;10.60;99.90
2873;DHT22;1444;49.166;7.312;2023-03-14T05:01:53;10.60;99.90
2873;DHT22;1444;49.166;7.312;2023-03-14T05:04:20;10.60;99.90
2873;DHT22;1444;49.166;7.312;2023-03-14T05:06:46;12.90;99.90
2873;DHT22;1444;49.166;7.312;2023-03-14T05:09:13;10.60;99.90
2873;DHT22;1444;49.166;7.312;2023-03-14T05:11:40;10.70;99.90
2873;DHT22;1444;49.166;7.312;2023-03-14T05:14:07;10.60;99.90
2873;DHT22;1444;49.166;7.312;2023-03-14T05:16:34;10.60;99.90
2873;DHT22;1444;49.166;7.312;2023-03-14T05:19:02;10.60;99.90
2873;DHT22;1444;49.166;7.312;2023-03-14T05:21:29;10.70;99.90
2873;DHT22;1444;49.166;7.312;2023-03-14T05:23:55;10.60;99.90
2873;DHT22;1444;49.166;7.312;2023-03-14T05:26:22;10.60;99.90
2873;DHT22;1444;49.166;7.312;2023-03-14T05:28:49;10.60;99.90
2873;DHT22;1444;49.166;7.312;2023-03-14T05:31:15;10.60;99.90
2873;DHT22;1444;49.166;7.312;2023-03-14T05:33:42;10.50;99.90
2873;DHT22;1444;49.166;7.312;2023-03-14T05:36:10;10.60;99.90
2873;DHT22;1444;49.166;7.312;2023-03-14T05:38:37;10.60;99.90
2873;DHT22;1444;49.166;7.312;2023-03-14T05:41:04;10.50;99.90
2873;DHT22;1444;49.166;7.312;2023-03-14T05:43:31;10.40;99.90
2873;DHT22;1444;49.166;7.312;2023-03-14T05:45:58;10.40;99.90
2873;DHT22;1444;49.166;7.312;2023-03-14T05:48:24;10.40;99.90
2873;DHT22;1444;49.166;7.312;2023-03-14T05:50:54;10.40;99.90
2873;DHT22;1444;49.166;7.312;2023-03-14T05:53:23;10.50;99.90
2873;DHT22;1444;49.166;7.312;2023-03-14T05:55:51;10.40;99.90
2873;DHT22;1444;49.166;7.312;2023-03-14T05:58:18;10.40;99.90
2873;DHT22;1444;49.166;7.312;2023-03-14T06:00:44;10.50;99.90
2873;DHT22;1444;49.166;7.312;2023-03-14T06:03:11;10.40;99.90
2873;DHT22;1444;49.166;7.312;2023-03-14T06:05:38;10.40;99.90
2873;DHT22;1444;49.166;7.312;2023-03-14T06:08:05;10.50;99.90
2873;DHT22;1444;49.166;7.312;2023-03-14T06:10:34;10.50;99.90
2873;DHT22;1444;49.166;7.312;2023-03-14T06:13:01;10.40;99.90
2873;DHT22;1444;49.166;7.312;2023-03-14T06:15:28;10.50;99.90
2873;DHT22;1444;49.166;7.312;2023-03-14T06:17:55;10.40;99.90
2873;DHT22;1444;49.166;7.312;2023-03-14T06:20:22;10.40;99.90
2873;DHT22;1444;49.166;7.312;2023-03-14T06:22:49;10.40;99.90
2873;DHT22;1444;49.166;7.312;2023-03-14T06:25:16;10.30;99.90
2873;DHT22;1444;49.166;7.312;2023-03-14T06:27:44;10.30;99.90
2873;DHT22;1444;49.166;7.312;2023-03-14T06:30:11;10.20;99.90
2873;DHT22;1444;49.166;7.312;2023-03-14T06:32:38;10.20;99.90
2873;DHT22;1444;49.166;7.312;2023-03-14T06:35:05;10.10;99.90
2873;DHT22;1444;49.166;7.312;2023-03-14T06:37:32;10.00;99.90
2873;DHT22;1444;49.166;7.312;2023-03-14T06:39:58;10.10;99.90
2873;DHT22;1444;49.166;7.312;2023-03-14T06:42:25;10.10;99.90
2873;DHT22;1444;49.166;7.312;2023-03-14T06:44:53;10.10;99.90
2873;DHT22;1444;49.166;7.312;2023-03-14T06:47:20;10.10;99.90
2873;DHT22;1444;49.166;7.312;2023-03-14T06:49:47;10.30;99.90
2873;DHT22;1444;49.166;7.312;2023-03-14T06:52:13;10.40;99.90
2873;DHT22;1444;49.166;7.312;2023-03-14T06:54:40;10.40;99.90
2873;DHT22;1444;49.166;7.312;2023-03-14T06:57:07;10.40;99.90
2873;DHT22;1444;49.166;7.312;2023-03-14T06:59:33;10.40;99.90
2873;DHT22;1444;49.166;7.312;2023-03-14T07:02:01;10.30;99.90
2873;DHT22;1444;49.166;7.312;2023-03-14T07:04:28;10.40;99.90
2873;DHT22;1444;49.166;7.312;2023-03-14T07:06:55;10.50;99.90
2873;DHT22;1444;49.166;7.312;2023-03-14T07:09:21;10.60;99.90
2873;DHT22;1444;49.166;7.312;2023-03-14T07:11:48;10.70;99.90
2873;DHT22;1444;49.166;7.312;2023-03-14T07:14:15;10.70;99.90
2873;DHT22;1444;49.166;7.312;2023-03-14T07:16:41;10.70;99.90
2873;DHT22;1444;49.166;7.312;2023-03-14T07:19:09;10.80;99.90
2873;DHT22;1444;49.166;7.312;2023-03-14T07:21:36;10.60;99.90
2873;DHT22;1444;49.166;7.312;2023-03-14T07:24:03;10.80;99.90
2873;DHT22;1444;49.166;7.312;2023-03-14T07:26:30;10.90;99.90
2873;DHT22;1444;49.166;7.312;2023-03-14T07:28:56;10.80;99.90
2873;DHT22;1444;49.166;7.312;2023-03-14T07:31:23;10.70;99.90
2873;DHT22;1444;49.166;7.312;2023-03-14T07:33:50;10.90;99.90
2873;DHT22;1444;49.166;7.312;2023-03-14T07:36:18;10.90;99.90
2873;DHT22;1444;49.166;7.312;2023-03-14T07:38:45;11.00;99.90
2873;DHT22;1444;49.166;7.312;2023-03-14T07:41:11;11.00;99.90
2873;DHT22;1444;49.166;7.312;2023-03-14T07:43:38;10.90;99.90
2873;DHT22;1444;49.166;7.312;2023-03-14T07:46:05;11.00;99.90
2873;DHT22;1444;49.166;7.312;2023-03-14T07:48:32;11.00;99.90
2873;DHT22;1444;49.166;7.312;2023-03-14T07:50:59;10.90;99.90
2873;DHT22;1444;49.166;7.312;2023-03-14T07:53:27;10.90;99.90
2873;DHT22;1444;49.166;7.312;2023-03-14T07:55:54;11.00;99.90
2873;DHT22;1444;49.166;7.312;2023-03-14T07:58:21;10.90;99.90
2873;DHT22;1444;49.166;7.312;2023-03-14T08:00:48;11.00;99.90
2873;DHT22;1444;49.166;7.312;2023-03-14T08:03:15;10.80;99.90
2873;DHT22;1444;49.166;7.312;2023-03-14T08:05:42;10.80;99.90
2873;DHT22;1444;49.166;7.312;2023-03-14T08:08:08;10.80;99.90
2873;DHT22;1444;49.166;7.312;2023-03-14T08:10:36;10.80;99.90
2873;DHT22;1444;49.166;7.312;2023-03-14T08:13:03;10.70;99.90
2873;DHT22;1444;49.166;7.312;2023-03-14T08:15:30;10.80;99.90
2873;DHT22;1444;49.166;7.312;2023-03-14T08:17:57;10.80;99.90
2873;DHT22;1444;49.166;7.312;2023-03-14T08:20:26;10.80;99.90
2873;DHT22;1444;49.166;7.312;2023-03-14T08:22:55;10.80;99.90
2873;DHT22;1444;49.166;7.312;2023-03-14T08:25:22;11.00;99.90
2873;DHT22;1444;49.166;7.312;2023-03-14T08:27:50;10.90;99.90
2873;DHT22;1444;49.166;7.312;2023-03-14T08:30:18;11.00;99.90
2873;DHT22;1444;49.166;7.312;2023-03-14T08:32:45;10.90;99.90
2873;DHT22;1444;49.166;7.312;2023-03-14T08:35:12;10.90;99.90
2873;DHT22;1444;49.166;7.312;2023-03-14T08:40:08;10.90;99.90
2873;DHT22;1444;49.166;7.312;2023-03-14T08:42:35;11.00;99.90
2873;DHT22;1444;49.166;7.312;2023-03-14T08:45:04;11.00;99.90
2873;DHT22;1444;49.166;7.312;2023-03-14T08:47:31;11.00;99.90
2873;DHT22;1444;49.166;7.312;2023-03-14T08:49:58;11.10;99.90
2873;DHT22;1444;49.166;7.312;2023-03-14T08:52:24;11.20;99.90
2873;DHT22;1444;49.166;7.312;2023-03-14T08:54:51;11.20;99.90
2873;DHT22;1444;49.166;7.312;2023-03-14T08:57:18;11.20;99.90
2873;DHT22;1444;49.166;7.312;2023-03-14T08:59:47;11.30;99.90
2873;DHT22;1444;49.166;7.312;2023-03-14T09:02:15;11.30;99.90
2873;DHT22;1444;49.166;7.312;2023-03-14T09:04:41;11.40;99.90
2873;DHT22;1444;49.166;7.312;2023-03-14T09:07:08;11.20;99.90
2873;DHT22;1444;49.166;7.312;2023-03-14T09:09:35;11.20;99.90
2873;DHT22;1444;49.166;7.312;2023-03-14T09:12:01;11.10;99.90
2873;DHT22;1444;49.166;7.312;2023-03-14T09:14:28;11.00;99.90
2873;DHT22;1444;49.166;7.312;2023-03-14T09:16:55;11.10;99.90
2873;DHT22;1444;49.166;7.312;2023-03-14T09:19:23;10.80;99.90
2873;DHT22;1444;49.166;7.312;2023-03-14T09:21:49;10.80;99.90
2873;DHT22;1444;49.166;7.312;2023-03-14T09:24:16;10.60;99.90
2873;DHT22;1444;49.166;7.312;2023-03-14T09:26:43;10.70;99.90
2873;DHT22;1444;49.166;7.312;2023-03-14T09:29:10;10.80;99.90
2873;DHT22;1444;49.166;7.312;2023-03-14T09:31:37;10.80;99.90
2873;DHT22;1444;49.166;7.312;2023-03-14T09:34:03;10.70;99.90
2873;DHT22;1444;49.166;7.312;2023-03-14T09:36:31;10.90;99.90
2873;DHT22;1444;49.166;7.312;2023-03-14T09:38:58;10.80;99.90
2873;DHT22;1444;49.166;7.312;2023-03-14T09:41:26;10.90;99.90
2873;DHT22;1444;49.166;7.312;2023-03-14T09:44:01;10.90;99.90
2873;DHT22;1444;49.166;7.312;2023-03-14T09:46:29;10.90;99.90
2873;DHT22;1444;49.166;7.312;2023-03-14T09:48:57;10.80;99.90
2873;DHT22;1444;49.166;7.312;2023-03-14T09:51:24;10.80;99.90
2873;DHT22;1444;49.166;7.312;2023-03-14T09:53:53;10.60;99.90
2873;DHT22;1444;49.166;7.312;2023-03-14T09:56:21;10.70;99.90
2873;DHT22;1444;49.166;7.312;2023-03-14T09:58:52;10.60;99.90
2873;DHT22;1444;49.166;7.312;2023-03-14T10:01:22;10.80;99.90
2873;DHT22;1444;49.166;7.312;2023-03-14T10:03:51;10.50;99.90
2873;DHT22;1444;49.166;7.312;2023-03-14T10:06:20;10.70;99.90
2873;DHT22;1444;49.166;7.312;2023-03-14T10:08:48;10.70;99.90
2873;DHT22;1444;49.166;7.312;2023-03-14T10:11:17;10.80;99.90
2873;DHT22;1444;49.166;7.312;2023-03-14T10:13:50;10.80;99.90
2873;DHT22;1444;49.166;7.312;2023-03-14T10:16:17;10.90;99.90
2873;DHT22;1444;49.166;7.312;2023-03-14T10:19:02;10.80;99.90
2873;DHT22;1444;49.166;7.312;2023-03-14T10:21:30;10.70;99.90
2873;DHT22;1444;49.166;7.312;2023-03-14T10:24:08;10.60;99.90
2873;DHT22;1444;49.166;7.312;2023-03-14T10:26:36;10.50;99.90
2873;DHT22;1444;49.166;7.312;2023-03-14T10:29:08;10.30;99.90
2873;DHT22;1444;49.166;7.312;2023-03-14T10:31:46;10.40;99.90
2873;DHT22;1444;49.166;7.312;2023-03-14T10:34:16;10.20;99.90
2873;DHT22;1444;49.166;7.312;2023-03-14T10:36:43;10.20;99.90
2873;DHT22;1444;49.166;7.312;2023-03-14T10:39:27;10.10;99.90
2873;DHT22;1444;49.166;7.312;2023-03-14T10:42:03;10.10;99.90
2873;DHT22;1444;49.166;7.312;2023-03-14T10:44:31;10.00;99.90
2873;DHT22;1444;49.166;7.312;2023-03-14T10:46:59;9.90;99.90
2873;DHT22;1444;49.166;7.312;2023-03-14T10:49:29;9.80;99.90
2873;DHT22;1444;49.166;7.312;2023-03-14T10:52:01;9.70;99.90
2873;DHT22;1444;49.166;7.312;2023-03-14T10:54:30;9.60;99.90
2873;DHT22;1444;49.166;7.312;2023-03-14T10:57:01;9.50;99.90
2873;DHT22;1444;49.166;7.312;2023-03-14T10:59:35;9.60;99.90
2873;DHT22;1444;49.166;7.312;2023-03-14T11:02:10;9.50;99.90
2873;DHT22;1444;49.166;7.312;2023-03-14T11:04:57;9.40;99.90
2873;DHT22;1444;49.166;7.312;2023-03-14T11:07:34;9.40;99.90
2873;DHT22;1444;49.166;7.312;2023-03-14T11:10:11;9.30;99.90
2873;DHT22;1444;49.166;7.312;2023-03-14T11:12:50;9.30;99.90
2873;DHT22;1444;49.166;7.312;2023-03-14T11:15:23;9.40;99.90
2873;DHT22;1444;49.166;7.312;2023-03-14T11:18:03;9.70;99.90
2873;DHT22;1444;49.166;7.312;2023-03-14T11:20:37;9.50;99.90
2873;DHT22;1444;49.166;7.312;2023-03-14T11:23:11;9.60;99.90
2873;DHT22;1444;49.166;7.312;2023-03-14T11:25:44;9.70;99.90
2873;DHT22;1444;49.166;7.312;2023-03-14T11:28:18;9.70;99.90
2873;DHT22;1444;49.166;7.312;2023-03-14T11:30:51;9.90;99.30
2873;DHT22;1444;49.166;7.312;2023-03-14T11:33:22;10.00;98.40
2873;DHT22;1444;49.166;7.312;2023-03-14T11:35:58;10.20;97.70
2873;DHT22;1444;49.166;7.312;2023-03-14T11:38:30;10.20;97.20
2873;DHT22;1444;49.166;7.312;2023-03-14T11:41:00;10.30;96.50
2873;DHT22;1444;49.166;7.312;2023-03-14T11:43:34;10.40;96.80
2873;DHT22;1444;49.166;7.312;2023-03-14T11:46:10;10.40;96.80
2873;DHT22;1444;49.166;7.312;2023-03-14T11:48:46;10.50;95.90
2873;DHT22;1444;49.166;7.312;2023-03-14T11:51:22;10.60;96.20
2873;DHT22;1444;49.166;7.312;2023-03-14T11:54:00;10.70;96.00
2873;DHT22;1444;49.166;7.312;2023-03-14T11:56:33;10.70;93.90
2873;DHT22;1444;49.166;7.312;2023-03-14T11:59:05;10.70;92.70
2873;DHT22;1444;49.166;7.312;2023-03-14T12:01:40;10.70;92.70
2873;DHT22;1444;49.166;7.312;2023-03-14T12:04:16;10.70;92.70
2873;DHT22;1444;49.166;7.312;2023-03-14T12:06:48;10.60;92.30
2873;DHT22;1444;49.166;7.312;2023-03-14T12:09:16;10.70;92.70
2873;DHT22;1444;49.166;7.312;2023-03-14T12:11:47;10.80;92.90
2873;DHT22;1444;49.166;7.312;2023-03-14T12:14:20;11.20;93.20
2873;DHT22;1444;49.166;7.312;2023-03-14T12:16:49;11.40;92.50
2873;DHT22;1444;49.166;7.312;2023-03-14T12:19:30;11.30;92.20
2873;DHT22;1444;49.166;7.312;2023-03-14T12:22:07;11.30;91.60
2873;DHT22;1444;49.166;7.312;2023-03-14T12:24:36;10.00;91.20
2873;DHT22;1444;49.166;7.312;2023-03-14T12:27:05;11.00;91.80
2873;DHT22;1444;49.166;7.312;2023-03-14T12:30:00;11.10;91.60
2873;DHT22;1444;49.166;7.312;2023-03-14T12:32:27;11.20;91.60
2873;DHT22;1444;49.166;7.312;2023-03-14T12:34:53;11.10;90.90
2873;DHT22;1444;49.166;7.312;2023-03-14T12:37:29;11.00;90.30
2873;DHT22;1444;49.166;7.312;2023-03-14T12:40:12;10.90;88.90
2873;DHT22;1444;49.166;7.312;2023-03-14T12:42:56;10.70;89.40
2873;DHT22;1444;49.166;7.312;2023-03-14T12:48:08;10.30;88.60
2873;DHT22;1444;49.166;7.312;2023-03-14T12:50:40;10.20;88.90
2873;DHT22;1444;49.166;7.312;2023-03-14T12:56:22;10.60;89.80
2873;DHT22;1444;49.166;7.312;2023-03-14T12:59:04;11.00;91.10
2873;DHT22;1444;49.166;7.312;2023-03-14T13:01:34;9.80;89.90
2873;DHT22;1444;49.166;7.312;2023-03-14T13:04:07;11.40;89.10
2873;DHT22;1444;49.166;7.312;2023-03-14T13:06:50;11.30;88.60
2873;DHT22;1444;49.166;7.312;2023-03-14T13:12:31;11.60;89.40
2873;DHT22;1444;49.166;7.312;2023-03-14T13:15:01;11.30;85.10
2873;DHT22;1444;49.166;7.312;2023-03-14T13:17:33;11.20;85.60
2873;DHT22;1444;49.166;7.312;2023-03-14T13:20:03;11.00;84.30
2873;DHT22;1444;49.166;7.312;2023-03-14T13:22:33;11.10;83.70
2873;DHT22;1444;49.166;7.312;2023-03-14T13:25:03;11.00;85.60
2873;DHT22;1444;49.166;7.312;2023-03-14T13:27:32;11.00;85.40
2873;DHT22;1444;49.166;7.312;2023-03-14T13:30:05;11.00;84.40
2873;DHT22;1444;49.166;7.312;2023-03-14T13:32:33;11.00;84.20
2873;DHT22;1444;49.166;7.312;2023-03-14T13:35:15;11.40;89.00
2873;DHT22;1444;49.166;7.312;2023-03-14T13:37:41;11.40;87.60
2873;DHT22;1444;49.166;7.312;2023-03-14T13:40:19;11.30;87.20
2873;DHT22;1444;49.166;7.312;2023-03-14T13:42:45;11.20;86.70
2873;DHT22;1444;49.166;7.312;2023-03-14T13:45:13;11.10;86.90
2873;DHT22;1444;49.166;7.312;2023-03-14T13:47:41;10.90;86.60
2873;DHT22;1444;49.166;7.312;2023-03-14T13:50:15;10.90;88.50
2873;DHT22;1444;49.166;7.312;2023-03-14T13:52:43;10.80;88.00
2873;DHT22;1444;49.166;7.312;2023-03-14T13:55:15;10.90;87.50
2873;DHT22;1444;49.166;7.312;2023-03-14T13:57:43;10.80;87.40
2873;DHT22;1444;49.166;7.312;2023-03-14T14:00:18;11.00;88.50
2873;DHT22;1444;49.166;7.312;2023-03-14T14:02:47;11.00;88.30
2873;DHT22;1444;49.166;7.312;2023-03-14T14:05:14;11.00;87.80
2873;DHT22;1444;49.166;7.312;2023-03-14T14:07:43;10.90;88.50
2873;DHT22;1444;49.166;7.312;2023-03-14T14:10:11;11.10;88.80
2873;DHT22;1444;49.166;7.312;2023-03-14T14:12:42;11.00;87.90
2873;DHT22;1444;49.166;7.312;2023-03-14T14:15:18;10.90;88.50
2873;DHT22;1444;49.166;7.312;2023-03-14T14:17:51;10.80;89.60
2873;DHT22;1444;49.166;7.312;2023-03-14T14:20:22;10.90;90.00
2873;DHT22;1444;49.166;7.312;2023-03-14T14:22:50;11.00;90.30
2873;DHT22;1444;49.166;7.312;2023-03-14T14:25:17;11.00;90.30
2873;DHT22;1444;49.166;7.312;2023-03-14T14:27:47;11.10;90.70
2873;DHT22;1444;49.166;7.312;2023-03-14T14:30:32;11.00;90.00
2873;DHT22;1444;49.166;7.312;2023-03-14T14:33:17;11.00;88.30
2873;DHT22;1444;49.166;7.312;2023-03-14T14:35:51;11.00;90.00
2873;DHT22;1444;49.166;7.312;2023-03-14T14:38:18;11.00;89.60
2873;DHT22;1444;49.166;7.312;2023-03-14T14:40:49;10.70;89.00
2873;DHT22;1444;49.166;7.312;2023-03-14T14:43:18;10.70;87.20
2873;DHT22;1444;49.166;7.312;2023-03-14T14:45:48;10.60;86.80
2873;DHT22;1444;49.166;7.312;2023-03-14T14:50:58;10.50;88.70
2873;DHT22;1444;49.166;7.312;2023-03-14T14:53:28;10.40;90.00
2873;DHT22;1444;49.166;7.312;2023-03-14T14:55:57;10.40;90.00
2873;DHT22;1444;49.166;7.312;2023-03-14T14:58:27;10.30;88.90
2873;DHT22;1444;49.166;7.312;2023-03-14T15:00:57;10.30;88.70
2873;DHT22;1444;49.166;7.312;2023-03-14T15:03:29;10.80;89.90
2873;DHT22;1444;49.166;7.312;2023-03-14T15:05:56;10.20;88.40
2873;DHT22;1444;49.166;7.312;2023-03-14T15:08:25;10.10;88.00
2873;DHT22;1444;49.166;7.312;2023-03-14T15:10:53;10.10;88.90
2873;DHT22;1444;49.166;7.312;2023-03-14T15:13:20;10.00;87.70
2873;DHT22;1444;49.166;7.312;2023-03-14T15:15:46;9.90;89.10
2873;DHT22;1444;49.166;7.312;2023-03-14T15:18:16;9.90;90.00
2873;DHT22;1444;49.166;7.312;2023-03-14T15:20:45;9.80;89.40
2873;DHT22;1444;49.166;7.312;2023-03-14T15:23:13;9.70;90.40
2873;DHT22;1444;49.166;7.312;2023-03-14T15:25:40;9.70;90.30
2873;DHT22;1444;49.166;7.312;2023-03-14T15:28:14;9.60;91.20
2873;DHT22;1444;49.166;7.312;2023-03-14T15:30:41;9.50;91.40
2873;DHT22;1444;49.166;7.312;2023-03-14T15:33:08;9.40;92.00
2873;DHT22;1444;49.166;7.312;2023-03-14T15:35:35;9.40;92.50
2873;DHT22;1444;49.166;7.312;2023-03-14T15:38:04;9.40;92.90
2873;DHT22;1444;49.166;7.312;2023-03-14T15:40:31;9.30;93.40
2873;DHT22;1444;49.166;7.312;2023-03-14T15:42:57;8.40;93.30
2873;DHT22;1444;49.166;7.312;2023-03-14T15:45:24;9.20;93.80
2873;DHT22;1444;49.166;7.312;2023-03-14T15:47:51;9.10;93.80
2873;DHT22;1444;49.166;7.312;2023-03-14T15:50:17;9.10;93.90
2873;DHT22;1444;49.166;7.312;2023-03-14T15:52:44;9.10;94.20
2873;DHT22;1444;49.166;7.312;2023-03-14T15:55:12;9.00;94.40
2873;DHT22;1444;49.166;7.312;2023-03-14T15:57:40;9.10;94.40
2873;DHT22;1444;49.166;7.312;2023-03-14T16:00:09;9.10;95.10
2873;DHT22;1444;49.166;7.312;2023-03-14T16:02:37;9.10;95.10
2873;DHT22;1444;49.166;7.312;2023-03-14T16:05:07;9.10;95.20
2873;DHT22;1444;49.166;7.312;2023-03-14T16:07:34;9.10;95.00
2873;DHT22;1444;49.166;7.312;2023-03-14T16:10:00;9.10;95.20
2873;DHT22;1444;49.166;7.312;2023-03-14T16:12:28;9.10;95.70
2873;DHT22;1444;49.166;7.312;2023-03-14T16:14:55;9.00;95.20
2873;DHT22;1444;49.166;7.312;2023-03-14T16:17:22;9.10;94.80
2873;DHT22;1444;49.166;7.312;2023-03-14T16:19:49;9.00;95.50
2873;DHT22;1444;49.166;7.312;2023-03-14T16:22:15;9.00;95.20
2873;DHT22;1444;49.166;7.312;2023-03-14T16:24:42;9.00;95.10
2873;DHT22;1444;49.166;7.312;2023-03-14T16:27:09;8.70;95.00
2873;DHT22;1444;49.166;7.312;2023-03-14T16:29:37;8.80;95.30
2873;DHT22;1444;49.166;7.312;2023-03-14T16:32:04;8.70;95.60
2873;DHT22;1444;49.166;7.312;2023-03-14T16:34:31;8.60;95.80
2873;DHT22;1444;49.166;7.312;2023-03-14T16:36:58;8.60;95.50
2873;DHT22;1444;49.166;7.312;2023-03-14T16:39:25;8.60;95.60
2873;DHT22;1444;49.166;7.312;2023-03-14T16:41:53;8.60;95.70
2873;DHT22;1444;49.166;7.312;2023-03-14T16:44:19;8.60;96.00
2873;DHT22;1444;49.166;7.312;2023-03-14T16:46:48;8.70;96.10
2873;DHT22;1444;49.166;7.312;2023-03-14T16:49:15;8.60;96.70
2873;DHT22;1444;49.166;7.312;2023-03-14T16:51:41;9.00;96.40
2873;DHT22;1444;49.166;7.312;2023-03-14T16:54:08;8.70;97.00
2873;DHT22;1444;49.166;7.312;2023-03-14T16:56:35;8.80;96.80
2873;DHT22;1444;49.166;7.312;2023-03-14T16:59:02;8.80;97.00
2873;DHT22;1444;49.166;7.312;2023-03-14T17:01:28;8.80;96.80
2873;DHT22;1444;49.166;7.312;2023-03-14T17:03:56;8.90;97.10